createdAt,value
2022-11-29T00:00:31.370Z,60.58
2022-11-29T00:02:58.154Z,53.78
2022-11-29T00:05:25.079Z,61.95
2022-11-29T00:07:51.708Z,56.90
2022-11-29T00:10:18.538Z,55.95
2022-11-29T00:12:47.909Z,53.63
2022-11-29T00:15:14.742Z,53.67
2022-11-29T00:17:41.326Z,55.97
2022-11-29T00:20:08.968Z,55.72
2022-11-29T00:22:35.650Z,54.08
2022-11-29T00:25:02.272Z,60.50
2022-11-29T00:27:28.839Z,56.40
2022-11-29T00:29:56.932Z,52.35
2022-11-29T00:32:26.418Z,54.83
2022-11-29T00:34:53.051Z,53.75
2022-11-29T00:37:19.690Z,53.83
2022-11-29T00:39:46.261Z,57.35
2022-11-29T00:42:12.881Z,55.83
2022-11-29T00:44:39.453Z,64.60
2022-11-29T00:47:07.486Z,61.03
2022-11-29T00:49:34.172Z,57.50
2022-11-29T00:52:00.880Z,56.92
2022-11-29T00:54:27.711Z,62.55
2022-11-29T00:56:54.363Z,64.53
2022-11-29T00:59:21.209Z,66.35
2022-11-29T01:01:47.927Z,65.60
2022-11-29T01:04:15.902Z,62.80
2022-11-29T01:06:42.458Z,63.78
2022-11-29T01:09:09.120Z,68.68
2022-11-29T01:11:35.862Z,67.32
2022-11-29T01:14:03.055Z,65.05
2022-11-29T01:16:30.712Z,60.67
2022-11-29T01:18:57.363Z,64.60
2022-11-29T01:21:25.524Z,62.78
2022-11-29T01:23:53.365Z,64.32
2022-11-29T01:26:22.474Z,66.68
2022-11-29T01:28:50.793Z,70.07
2022-11-29T01:31:19.384Z,62.70
2022-11-29T01:33:46.326Z,59.80
2022-11-29T01:36:13.992Z,65.30
2022-11-29T01:38:41.947Z,62.50
2022-11-29T01:41:12.225Z,59.65
2022-11-29T01:43:54.815Z,63.20
2022-11-29T01:46:21.478Z,62.20
2022-11-29T01:48:49.086Z,60.75
2022-11-29T01:51:17.139Z,63.30
2022-11-29T01:53:45.346Z,56.42
2022-11-29T01:56:14.657Z,61.00
2022-11-29T01:58:42.364Z,58.85
2022-11-29T02:01:09.281Z,57.63
2022-11-29T02:03:35.965Z,60.72
2022-11-29T02:06:03.369Z,60.65
2022-11-29T02:08:34.087Z,57.83
2022-11-29T02:11:26.419Z,54.30
2022-11-29T02:14:04.233Z,54.92
2022-11-29T02:16:37.755Z,51.10
2022-11-29T02:19:24.430Z,57.17
2022-11-29T02:21:57.026Z,59.53
2022-11-29T02:24:56.552Z,54.63
2022-11-29T02:27:52.814Z,57.28
2022-11-29T02:30:36.825Z,56.95
2022-11-29T02:33:27.944Z,50.78
2022-11-29T02:36:18.962Z,52.75
2022-11-29T02:39:04.337Z,52.33
2022-11-29T02:41:47.287Z,57.22
2022-11-29T02:44:35.816Z,62.70
2022-11-29T02:47:18.699Z,58.15
2022-11-29T02:50:06.968Z,56.17
2022-11-29T02:52:41.948Z,52.53
2022-11-29T02:55:15.952Z,55.50
2022-11-29T02:57:50.216Z,56.45
2022-11-29T03:00:19.883Z,52.13
2022-11-29T03:02:53.152Z,56.33
2022-11-29T03:07:59.455Z,50.22
2022-11-29T03:10:33.644Z,53.70
2022-11-29T03:13:04.755Z,56.72
2022-11-29T03:15:34.042Z,55.50
2022-11-29T03:18:14.204Z,56.72
2022-11-29T03:20:55.196Z,50.90
2022-11-29T03:23:25.768Z,60.45
2022-11-29T03:25:58.002Z,50.75
2022-11-29T03:28:31.016Z,54.65
2022-11-29T03:31:05.205Z,51.15
2022-11-29T03:33:38.870Z,60.88
2022-11-29T03:36:15.066Z,51.83
2022-11-29T03:38:43.525Z,50.35
2022-11-29T03:41:23.731Z,57.92
2022-11-29T03:43:56.716Z,55.47
2022-11-29T03:46:31.886Z,58.85
2022-11-29T03:49:03.202Z,54.00
2022-11-29T03:51:42.872Z,58.17
2022-11-29T03:54:11.656Z,61.10
2022-11-29T03:56:40.412Z,57.60
2022-11-29T03:59:23.121Z,62.42
2022-11-29T04:02:08.512Z,59.08
2022-11-29T04:05:11.379Z,57.55
2022-11-29T04:08:26.961Z,57.72
2022-11-29T04:11:28.445Z,62.35
2022-11-29T04:14:21.639Z,56.03
2022-11-29T04:17:17.345Z,57.55
2022-11-29T04:20:23.938Z,57.95
2022-11-29T04:23:17.720Z,61.83
2022-11-29T04:26:07.371Z,55.00
2022-11-29T04:28:59.131Z,55.63
2022-11-29T04:31:37.872Z,62.50
2022-11-29T04:34:21.078Z,62.40
2022-11-29T04:37:24.235Z,60.28
2022-11-29T04:40:25.686Z,55.42
2022-11-29T04:43:09.457Z,65.15
2022-11-29T04:46:04.260Z,60.33
2022-11-29T04:48:51.160Z,61.72
2022-11-29T04:51:29.343Z,65.97
2022-11-29T04:54:07.623Z,67.22
2022-11-29T04:56:42.679Z,55.88
2022-11-29T04:59:18.301Z,61.85
2022-11-29T05:01:58.354Z,64.97
2022-11-29T05:04:31.788Z,60.97
2022-11-29T05:09:37.694Z,61.13
2022-11-29T05:12:14.286Z,63.60
2022-11-29T05:15:02.910Z,60.78
2022-11-29T05:17:42.097Z,65.95
2022-11-29T05:20:21.463Z,60.42
2022-11-29T05:23:04.319Z,60.67
2022-11-29T05:25:43.980Z,59.37
2022-11-29T05:28:18.555Z,62.67
2022-11-29T05:31:09.371Z,57.03
2022-11-29T05:34:05.718Z,58.05
2022-11-29T05:36:39.334Z,65.45
2022-11-29T05:39:29.234Z,58.72
2022-11-29T05:42:11.937Z,64.32
2022-11-29T05:44:45.023Z,62.75
2022-11-29T05:47:20.714Z,62.03
2022-11-29T05:50:00.738Z,62.88
2022-11-29T05:52:39.413Z,61.50
2022-11-29T05:55:19.264Z,62.95
2022-11-29T05:57:55.592Z,69.00
2022-11-29T06:00:23.037Z,59.88
2022-11-29T06:02:58.763Z,60.67
2022-11-29T06:05:32.403Z,54.50
2022-11-29T06:08:05.098Z,57.08
2022-11-29T06:10:36.552Z,59.72
2022-11-29T06:13:13.352Z,58.50
2022-11-29T06:16:18.728Z,59.75
2022-11-29T06:19:11.581Z,62.78
2022-11-29T06:21:45.998Z,56.00
2022-11-29T06:24:37.741Z,58.25
2022-11-29T06:27:36.813Z,66.22
2022-11-29T06:30:08.598Z,61.65
2022-11-29T06:32:44.273Z,64.32
2022-11-29T06:35:32.141Z,72.90
2022-11-29T06:38:03.661Z,66.80
2022-11-29T06:40:30.865Z,64.75
2022-11-29T06:42:57.632Z,65.95
2022-11-29T06:45:24.888Z,65.55
2022-11-29T06:47:58.033Z,67.97
2022-11-29T06:50:38.384Z,70.70
2022-11-29T06:53:16.894Z,59.90
2022-11-29T06:55:53.786Z,55.42
2022-11-29T06:58:36.186Z,62.80
2022-11-29T07:01:10.057Z,46.00
2022-11-29T07:03:53.759Z,71.50
2022-11-29T07:08:53.703Z,63.45
2022-11-29T07:11:21.217Z,62.55
2022-11-29T07:13:48.329Z,60.42
2022-11-29T07:16:21.276Z,61.53
2022-11-29T07:18:57.072Z,63.17
2022-11-29T07:21:38.845Z,63.03
2022-11-29T07:24:16.350Z,63.13
2022-11-29T07:26:55.161Z,69.40
2022-11-29T07:29:35.216Z,65.70
2022-11-29T07:32:11.962Z,62.28
2022-11-29T07:34:49.558Z,54.67
2022-11-29T07:37:23.993Z,64.07
2022-11-29T07:39:59.421Z,63.00
2022-11-29T07:42:35.635Z,60.92
2022-11-29T07:45:13.418Z,60.03
2022-11-29T07:47:40.031Z,63.50
2022-11-29T07:50:07.794Z,64.70
2022-11-29T07:52:35.913Z,60.85
2022-11-29T07:55:02.675Z,62.20
2022-11-29T07:57:29.269Z,61.67
2022-11-29T07:59:55.832Z,62.70
2022-11-29T08:02:29.818Z,58.42
2022-11-29T08:04:56.722Z,63.63
2022-11-29T08:07:23.504Z,59.38
2022-11-29T08:09:51.601Z,61.75
2022-11-29T08:12:18.493Z,70.97
2022-11-29T08:14:45.486Z,68.25
2022-11-29T08:17:12.294Z,66.03
2022-11-29T08:19:38.861Z,56.28
2022-11-29T08:22:05.468Z,62.55
2022-11-29T08:24:32.039Z,63.55
2022-11-29T08:26:59.990Z,62.88
2022-11-29T08:29:26.619Z,66.35
2022-11-29T08:31:54.212Z,62.35
2022-11-29T08:34:21.774Z,58.58
2022-11-29T08:36:48.717Z,61.78
2022-11-29T08:39:15.298Z,56.58
2022-11-29T08:41:41.948Z,62.72
2022-11-29T08:44:10.131Z,65.75
2022-11-29T08:46:36.723Z,66.38
2022-11-29T08:49:03.318Z,61.50
2022-11-29T08:51:30.556Z,64.18
2022-11-29T08:53:57.135Z,59.17
2022-11-29T08:57:10.012Z,59.65
2022-11-29T08:59:11.926Z,60.53
2022-11-29T09:01:38.716Z,55.80
2022-11-29T09:04:05.585Z,54.65
2022-11-29T09:06:36.814Z,55.15
2022-11-29T09:09:04.461Z,69.70
2022-11-29T09:11:33.858Z,59.22
2022-11-29T09:14:03.479Z,57.78
2022-11-29T09:16:35.035Z,58.05
2022-11-29T09:19:01.856Z,57.53
2022-11-29T09:21:30.340Z,56.05
2022-11-29T09:23:59.325Z,60.60
2022-11-29T09:26:28.171Z,59.53
2022-11-29T09:28:55.232Z,64.68
2022-11-29T09:31:22.080Z,60.67
2022-11-29T09:33:50.082Z,61.63
2022-11-29T09:36:16.844Z,55.58
2022-11-29T09:38:43.459Z,55.25
2022-11-29T09:41:27.736Z,53.33
2022-11-29T09:44:03.870Z,63.00
2022-11-29T09:46:38.728Z,63.92
2022-11-29T09:49:26.909Z,57.85
2022-11-29T09:51:59.245Z,63.13
2022-11-29T09:54:35.085Z,58.05
2022-11-29T09:57:10.375Z,56.67
2022-11-29T09:59:41.787Z,57.92
2022-11-29T10:02:21.113Z,53.45
2022-11-29T10:04:56.360Z,58.50
2022-11-29T10:07:28.552Z,62.40
2022-11-29T10:10:00.635Z,53.47
2022-11-29T10:12:35.779Z,59.03
2022-11-29T10:15:06.634Z,57.83
2022-11-29T10:17:37.302Z,56.60
2022-11-29T10:20:12.794Z,58.30
2022-11-29T10:22:45.441Z,60.45
2022-11-29T10:25:20.030Z,64.50
2022-11-29T10:27:46.680Z,60.17
2022-11-29T10:30:14.650Z,55.97
2022-11-29T10:32:43.981Z,56.40
2022-11-29T10:35:16.231Z,59.00
2022-11-29T10:37:56.351Z,48.85
2022-11-29T10:40:33.428Z,63.10
2022-11-29T10:43:01.253Z,55.47
2022-11-29T10:45:30.230Z,60.42
2022-11-29T10:48:01.840Z,59.22
2022-11-29T10:50:32.304Z,53.95
2022-11-29T10:53:04.147Z,63.15
2022-11-29T10:55:38.553Z,64.40
2022-11-29T10:58:14.546Z,65.05
2022-11-29T11:00:46.600Z,58.33
2022-11-29T11:03:16.432Z,64.30
2022-11-29T11:05:56.529Z,56.67
2022-11-29T11:08:24.967Z,57.85
2022-11-29T11:10:55.379Z,62.95
2022-11-29T11:13:27.135Z,60.30
2022-11-29T11:15:58.728Z,56.53
2022-11-29T11:18:26.949Z,61.28
2022-11-29T11:20:58.357Z,52.95
2022-11-29T11:23:27.205Z,62.22
2022-11-29T11:26:00.318Z,60.90
2022-11-29T11:28:30.151Z,65.50
2022-11-29T11:30:59.116Z,60.45
2022-11-29T11:33:28.382Z,55.78
2022-11-29T11:36:08.701Z,61.30
2022-11-29T11:38:37.994Z,58.92
2022-11-29T11:41:15.283Z,64.82
2022-11-29T11:43:42.150Z,65.15
2022-11-29T11:46:10.139Z,64.53
2022-11-29T11:48:40.830Z,58.65
2022-11-29T11:51:20.455Z,64.68
2022-11-29T11:53:51.039Z,61.63
2022-11-29T11:56:18.327Z,60.47
2022-11-29T11:58:49.715Z,61.47
2022-11-29T12:01:25.234Z,61.70
2022-11-29T12:03:58.823Z,61.00
2022-11-29T12:06:49.185Z,58.55
2022-11-29T12:09:37.425Z,61.42
2022-11-29T12:12:11.395Z,57.28
2022-11-29T12:14:47.922Z,62.55
2022-11-29T12:17:22.482Z,61.10
2022-11-29T12:20:03.086Z,57.33
2022-11-29T12:22:45.153Z,63.60
2022-11-29T12:25:18.445Z,62.70
2022-11-29T12:27:45.202Z,60.00
2022-11-29T12:30:13.696Z,65.03
2022-11-29T12:32:53.367Z,61.20
2022-11-29T12:35:41.683Z,60.60
2022-11-29T12:38:20.213Z,61.58
2022-11-29T12:40:57.560Z,62.38
2022-11-29T12:43:34.922Z,63.38
2022-11-29T12:46:10.360Z,66.18
2022-11-29T12:48:45.694Z,58.20
2022-11-29T12:51:22.633Z,63.15
2022-11-29T12:54:04.760Z,62.75
2022-11-29T12:56:37.664Z,63.05
2022-11-29T12:59:19.894Z,54.50
2022-11-29T13:02:03.098Z,58.22
2022-11-29T13:04:38.827Z,61.80
2022-11-29T13:07:15.789Z,65.88
2022-11-29T13:09:57.029Z,62.85
2022-11-29T13:12:32.999Z,63.88
2022-11-29T13:15:05.223Z,67.38
2022-11-29T13:17:43.583Z,62.58
2022-11-29T13:20:22.898Z,65.57
2022-11-29T13:22:56.078Z,63.40
2022-11-29T13:25:28.518Z,67.45
2022-11-29T13:27:59.870Z,65.78
2022-11-29T13:30:26.524Z,69.75
2022-11-29T13:32:59.865Z,63.63
2022-11-29T13:35:36.802Z,62.67
2022-11-29T13:38:09.970Z,66.25
2022-11-29T13:40:44.048Z,72.20
2022-11-29T13:43:20.174Z,64.93
2022-11-29T13:45:53.930Z,68.20
2022-11-29T13:48:31.685Z,67.85
2022-11-29T13:50:59.021Z,68.50
2022-11-29T13:53:46.839Z,70.88
2022-11-29T13:56:27.781Z,67.70
2022-11-29T13:58:54.833Z,72.40
2022-11-29T14:01:22.323Z,76.22
2022-11-29T14:04:04.601Z,71.15
2022-11-29T14:06:35.951Z,84.65
2022-11-29T14:09:23.306Z,75.28
2022-11-29T14:12:01.671Z,70.13
2022-11-29T14:14:32.757Z,79.35
2022-11-29T14:17:02.092Z,80.80
2022-11-29T14:19:33.804Z,85.43
2022-11-29T14:22:21.097Z,80.38
2022-11-29T14:25:00.596Z,85.25
2022-11-29T14:28:03.874Z,80.45
2022-11-29T14:30:46.558Z,90.53
2022-11-29T14:33:23.798Z,80.95
2022-11-29T14:36:04.263Z,87.18
2022-11-29T14:38:42.492Z,80.30
2022-11-29T14:41:22.335Z,79.18
2022-11-29T14:43:50.860Z,83.18
2022-11-29T14:46:29.270Z,84.55
2022-11-29T14:49:01.586Z,81.55
2022-11-29T14:51:30.732Z,83.18
2022-11-29T14:54:12.630Z,92.22
2022-11-29T14:56:40.046Z,83.15
2022-11-29T14:59:46.538Z,87.47
2022-11-29T15:02:30.270Z,90.55
2022-11-29T15:07:28.152Z,86.70
2022-11-29T15:09:59.271Z,86.93
2022-11-29T15:12:29.998Z,89.28
2022-11-29T15:15:09.964Z,90.28
2022-11-29T15:17:47.387Z,90.53
2022-11-29T15:20:31.012Z,105.85
2022-11-29T15:25:27.288Z,100.40
2022-11-29T15:27:55.978Z,101.40
2022-11-29T15:30:33.256Z,103.03
2022-11-29T15:33:01.750Z,106.28
2022-11-29T15:35:29.310Z,99.03
2022-11-29T15:37:56.322Z,101.38
2022-11-29T15:40:24.682Z,103.47
2022-11-29T15:42:55.138Z,100.07
2022-11-29T15:45:27.360Z,100.57
2022-11-29T15:48:09.471Z,96.97
2022-11-29T15:50:36.742Z,99.68
2022-11-29T15:53:08.719Z,95.32
2022-11-29T15:55:35.556Z,106.53
2022-11-29T15:58:08.787Z,92.55
2022-11-29T16:00:36.243Z,91.80
2022-11-29T16:03:07.468Z,95.65
2022-11-29T16:05:36.871Z,98.88
2022-11-29T16:08:07.439Z,95.85
2022-11-29T16:10:36.550Z,95.53
2022-11-29T16:13:06.291Z,99.10
2022-11-29T16:15:35.606Z,91.90
2022-11-29T16:18:05.640Z,93.53
2022-11-29T16:20:32.418Z,94.47
2022-11-29T16:23:04.700Z,93.65
2022-11-29T16:25:37.416Z,98.95
2022-11-29T16:28:04.648Z,107.15
2022-11-29T16:30:32.422Z,98.68
2022-11-29T16:33:01.420Z,102.53
2022-11-29T16:35:31.165Z,105.75
2022-11-29T16:37:57.731Z,97.28
2022-11-29T16:40:27.256Z,99.45
2022-11-29T16:43:06.879Z,107.88
2022-11-29T16:45:35.058Z,97.57
2022-11-29T16:48:02.773Z,109.60
2022-11-29T16:50:32.477Z,107.90
2022-11-29T16:53:32.871Z,97.78
2022-11-29T16:55:59.522Z,97.60
2022-11-29T16:58:26.616Z,90.30
2022-11-29T17:00:53.291Z,92.75
2022-11-29T17:03:19.914Z,111.30
2022-11-29T17:05:47.931Z,105.43
2022-11-29T17:08:14.673Z,99.75
2022-11-29T17:10:41.317Z,90.22
2022-11-29T17:13:09.223Z,87.38
2022-11-29T17:15:35.762Z,86.00
2022-11-29T17:18:02.460Z,98.32
2022-11-29T17:20:29.021Z,98.78
2022-11-29T17:22:57.088Z,92.53
2022-11-29T17:25:23.676Z,101.88
2022-11-29T17:27:50.230Z,92.40
2022-11-29T17:30:17.207Z,89.80
2022-11-29T17:32:43.889Z,90.22
2022-11-29T17:35:10.474Z,96.53
2022-11-29T17:37:37.015Z,114.25
2022-11-29T17:40:06.125Z,88.45
2022-11-29T17:42:32.696Z,109.40
2022-11-29T17:44:59.261Z,108.88
2022-11-29T17:47:25.865Z,96.45
2022-11-29T17:49:52.421Z,90.88
2022-11-29T17:52:18.981Z,98.13
2022-11-29T17:54:45.598Z,103.32
2022-11-29T17:57:13.628Z,101.03
2022-11-29T17:59:40.240Z,105.43
2022-11-29T18:02:06.985Z,90.13
2022-11-29T18:04:33.574Z,103.80
2022-11-29T18:07:00.208Z,95.47
2022-11-29T18:09:26.936Z,99.38
2022-11-29T18:11:53.461Z,95.70
2022-11-29T18:14:23.107Z,96.63
2022-11-29T18:16:50.138Z,91.05
2022-11-29T18:19:18.437Z,89.65
2022-11-29T18:21:45.406Z,93.68
2022-11-29T18:24:12.018Z,86.72
2022-11-29T18:26:39.298Z,89.95
2022-11-29T18:29:07.361Z,99.55
2022-11-29T18:31:37.205Z,96.38
2022-11-29T18:34:04.970Z,98.38
2022-11-29T18:36:34.786Z,96.05
2022-11-29T18:39:03.689Z,95.22
2022-11-29T18:41:31.101Z,90.45
2022-11-29T18:43:59.790Z,82.57
2022-11-29T18:46:27.931Z,93.35
2022-11-29T18:48:55.927Z,89.05
2022-11-29T18:51:22.544Z,92.45
2022-11-29T18:53:49.067Z,82.32
2022-11-29T18:56:18.189Z,96.22
2022-11-29T18:58:46.255Z,97.22
2022-11-29T19:01:14.705Z,83.88
2022-11-29T19:03:43.182Z,86.22
2022-11-29T19:06:13.288Z,80.15
2022-11-29T19:08:40.414Z,80.32
2022-11-29T19:11:07.473Z,89.40
2022-11-29T19:13:34.868Z,80.55
2022-11-29T19:16:02.202Z,81.45
2022-11-29T19:18:28.789Z,77.45
2022-11-29T19:21:03.603Z,86.00
2022-11-29T19:23:31.893Z,84.80
2022-11-29T19:26:02.197Z,83.50
2022-11-29T19:28:28.886Z,92.50
2022-11-29T19:30:55.866Z,82.20
2022-11-29T19:33:22.518Z,78.10
2022-11-29T19:35:49.091Z,82.40
2022-11-29T19:38:15.774Z,78.78
2022-11-29T19:40:43.757Z,81.93
2022-11-29T19:43:10.354Z,73.57
2022-11-29T19:45:39.006Z,81.80
2022-11-29T19:48:05.824Z,76.47
2022-11-29T19:50:32.581Z,76.25
2022-11-29T19:52:59.088Z,76.13
2022-11-29T19:55:25.666Z,77.10
2022-11-29T19:57:55.162Z,74.47
2022-11-29T20:00:22.122Z,81.05
2022-11-29T20:02:48.695Z,81.50
2022-11-29T20:05:15.312Z,72.38
2022-11-29T20:07:41.941Z,70.90
2022-11-29T20:10:09.325Z,81.43
2022-11-29T20:12:35.887Z,70.00
2022-11-29T20:15:05.103Z,84.68
2022-11-29T20:17:31.716Z,74.78
2022-11-29T20:19:58.332Z,81.88
2022-11-29T20:22:24.940Z,77.53
2022-11-29T20:24:51.533Z,73.78
2022-11-29T20:27:18.216Z,75.38
2022-11-29T20:29:45.023Z,76.85
2022-11-29T20:32:13.281Z,93.78
2022-11-29T20:34:40.488Z,73.82
2022-11-29T20:37:21.791Z,76.28
2022-11-29T20:39:53.174Z,78.97
2022-11-29T20:42:49.465Z,75.55
2022-11-29T20:45:16.775Z,72.18
2022-11-29T20:47:50.372Z,80.38
2022-11-29T20:50:23.218Z,67.88
2022-11-29T20:53:00.181Z,75.95
2022-11-29T20:55:26.776Z,78.78
2022-11-29T20:57:53.438Z,82.70
2022-11-29T21:00:21.066Z,69.25
2022-11-29T21:02:49.185Z,73.75
2022-11-29T21:05:15.936Z,82.78
2022-11-29T21:07:42.537Z,78.55
2022-11-29T21:10:10.041Z,80.53
2022-11-29T21:12:37.139Z,74.60
2022-11-29T21:15:04.708Z,82.97
2022-11-29T21:17:33.900Z,79.15
2022-11-29T21:20:02.832Z,74.20
2022-11-29T21:22:38.398Z,73.90
2022-11-29T21:25:12.512Z,73.45
2022-11-29T21:27:39.680Z,84.22
2022-11-29T21:30:13.937Z,78.47
2022-11-29T21:32:41.443Z,75.68
2022-11-29T21:35:09.649Z,81.20
2022-11-29T21:37:36.290Z,77.47
2022-11-29T21:40:03.656Z,77.80
2022-11-29T21:42:30.263Z,77.57
2022-11-29T21:44:56.881Z,81.32
2022-11-29T21:47:23.426Z,75.30
2022-11-29T21:49:50.047Z,74.78
2022-11-29T21:52:22.428Z,72.88
2022-11-29T21:54:49.764Z,78.95
2022-11-29T21:57:16.474Z,82.50
2022-11-29T21:59:43.189Z,76.28
2022-11-29T22:02:09.994Z,72.18
2022-11-29T22:04:36.721Z,79.80
2022-11-29T22:07:03.313Z,74.97
2022-11-29T22:09:31.333Z,77.40
2022-11-29T22:11:57.912Z,78.30
2022-11-29T22:14:24.574Z,76.25
2022-11-29T22:16:53.069Z,83.20
2022-11-29T22:19:21.977Z,82.85
2022-11-29T22:21:49.818Z,82.38
2022-11-29T22:24:18.611Z,78.97
2022-11-29T22:26:47.099Z,76.00
2022-11-29T22:29:14.460Z,73.55
2022-11-29T22:31:41.658Z,74.55
2022-11-29T22:34:08.601Z,73.47
2022-11-29T22:36:35.769Z,78.43
2022-11-29T22:39:03.298Z,75.57
2022-11-29T22:41:31.124Z,83.78
2022-11-29T22:43:59.182Z,80.47
2022-11-29T22:46:27.070Z,75.60
2022-11-29T22:48:55.447Z,80.32
2022-11-29T22:51:24.012Z,78.82
2022-11-29T22:53:51.902Z,82.00
2022-11-29T22:56:19.257Z,81.28
2022-11-29T22:58:46.821Z,81.47
2022-11-29T23:01:16.454Z,76.57
2022-11-29T23:03:44.910Z,75.13
2022-11-29T23:06:13.510Z,71.40
2022-11-29T23:08:41.760Z,80.93
2022-11-29T23:11:11.517Z,83.50
2022-11-29T23:13:40.259Z,77.97
2022-11-29T23:16:08.981Z,78.68
2022-11-29T23:18:37.270Z,75.88
2022-11-29T23:21:05.819Z,79.45
2022-11-29T23:23:32.756Z,80.28
2022-11-29T23:26:00.067Z,82.50
2022-11-29T23:28:27.993Z,76.90
2022-11-29T23:30:54.802Z,79.43
2022-11-29T23:33:21.592Z,87.90
2022-11-29T23:35:50.359Z,82.32
2022-11-29T23:38:18.016Z,79.53
2022-11-29T23:40:44.567Z,77.45
2022-11-29T23:43:11.246Z,77.63
2022-11-29T23:45:38.702Z,84.40
2022-11-29T23:48:05.804Z,84.60
2022-11-29T23:50:32.387Z,79.47
2022-11-29T23:53:00.372Z,82.20
2022-11-29T23:55:27.242Z,77.82
2022-11-29T23:57:53.812Z,85.28
